sensor_id;sensor_type;location;lat;lon;timestamp;P1;durP1;ratioP1;P2;durP2;ratioP2
34805;SDS011;65084;42.196;25.326;2023-10-08T00:01:55;15.93;;;5.35;;
34805;SDS011;65084;42.196;25.326;2023-10-08T00:04:23;11.23;;;4.90;;
34805;SDS011;65084;42.196;25.326;2023-10-08T00:06:51;10.13;;;5.43;;
34805;SDS011;65084;42.196;25.326;2023-10-08T00:09:18;10.93;;;5.47;;
34805;SDS011;65084;42.196;25.326;2023-10-08T00:11:46;10.98;;;5.28;;
34805;SDS011;65084;42.196;25.326;2023-10-08T00:14:19;16.52;;;5.93;;
34805;SDS011;65084;42.196;25.326;2023-10-08T00:16:47;10.73;;;5.15;;
34805;SDS011;65084;42.196;25.326;2023-10-08T00:19:16;9.35;;;5.90;;
34805;SDS011;65084;42.196;25.326;2023-10-08T00:21:43;7.75;;;5.18;;
34805;SDS011;65084;42.196;25.326;2023-10-08T00:24:13;6.50;;;4.97;;
34805;SDS011;65084;42.196;25.326;2023-10-08T00:26:41;5.90;;;4.80;;
34805;SDS011;65084;42.196;25.326;2023-10-08T00:29:08;12.23;;;5.55;;
34805;SDS011;65084;42.196;25.326;2023-10-08T00:31:42;14.52;;;4.85;;
34805;SDS011;65084;42.196;25.326;2023-10-08T00:34:10;13.80;;;4.93;;
34805;SDS011;65084;42.196;25.326;2023-10-08T00:36:40;7.15;;;5.05;;
34805;SDS011;65084;42.196;25.326;2023-10-08T00:39:08;9.10;;;5.60;;
34805;SDS011;65084;42.196;25.326;2023-10-08T00:41:39;8.05;;;5.47;;
34805;SDS011;65084;42.196;25.326;2023-10-08T00:44:08;15.27;;;6.25;;
34805;SDS011;65084;42.196;25.326;2023-10-08T00:46:37;6.40;;;5.07;;
34805;SDS011;65084;42.196;25.326;2023-10-08T00:49:07;8.75;;;5.15;;
34805;SDS011;65084;42.196;25.326;2023-10-08T00:51:51;16.48;;;5.05;;
34805;SDS011;65084;42.196;25.326;2023-10-08T00:54:29;6.03;;;5.15;;
34805;SDS011;65084;42.196;25.326;2023-10-08T00:57:00;7.10;;;5.28;;
34805;SDS011;65084;42.196;25.326;2023-10-08T00:59:31;12.50;;;5.85;;
34805;SDS011;65084;42.196;25.326;2023-10-08T01:02:07;13.32;;;5.50;;
34805;SDS011;65084;42.196;25.326;2023-10-08T01:04:40;10.95;;;5.18;;
34805;SDS011;65084;42.196;25.326;2023-10-08T01:07:10;10.82;;;5.28;;
34805;SDS011;65084;42.196;25.326;2023-10-08T01:09:40;8.10;;;4.97;;
34805;SDS011;65084;42.196;25.326;2023-10-08T01:12:09;7.32;;;4.95;;
34805;SDS011;65084;42.196;25.326;2023-10-08T01:14:40;22.60;;;5.28;;
34805;SDS011;65084;42.196;25.326;2023-10-08T01:17:08;5.28;;;4.78;;
34805;SDS011;65084;42.196;25.326;2023-10-08T01:19:38;5.75;;;5.20;;
34805;SDS011;65084;42.196;25.326;2023-10-08T01:22:08;5.75;;;5.18;;
34805;SDS011;65084;42.196;25.326;2023-10-08T01:24:42;8.52;;;5.45;;
34805;SDS011;65084;42.196;25.326;2023-10-08T01:27:10;8.40;;;5.38;;
34805;SDS011;65084;42.196;25.326;2023-10-08T01:29:38;14.38;;;5.25;;
34805;SDS011;65084;42.196;25.326;2023-10-08T01:32:09;8.57;;;5.28;;
34805;SDS011;65084;42.196;25.326;2023-10-08T01:34:36;6.97;;;5.72;;
34805;SDS011;65084;42.196;25.326;2023-10-08T01:37:11;12.55;;;5.68;;
34805;SDS011;65084;42.196;25.326;2023-10-08T01:39:39;10.18;;;5.15;;
34805;SDS011;65084;42.196;25.326;2023-10-08T01:42:07;7.88;;;5.75;;
34805;SDS011;65084;42.196;25.326;2023-10-08T01:44:41;7.90;;;5.15;;
34805;SDS011;65084;42.196;25.326;2023-10-08T01:47:11;7.22;;;4.57;;
34805;SDS011;65084;42.196;25.326;2023-10-08T01:49:38;15.25;;;4.95;;
34805;SDS011;65084;42.196;25.326;2023-10-08T01:52:08;6.70;;;4.82;;
34805;SDS011;65084;42.196;25.326;2023-10-08T01:54:40;10.52;;;5.22;;
34805;SDS011;65084;42.196;25.326;2023-10-08T01:57:09;11.20;;;5.07;;
34805;SDS011;65084;42.196;25.326;2023-10-08T01:59:37;9.23;;;5.45;;
34805;SDS011;65084;42.196;25.326;2023-10-08T02:02:05;8.43;;;5.13;;
34805;SDS011;65084;42.196;25.326;2023-10-08T02:04:32;10.63;;;5.07;;
34805;SDS011;65084;42.196;25.326;2023-10-08T02:07:01;11.48;;;5.60;;
34805;SDS011;65084;42.196;25.326;2023-10-08T02:09:33;15.75;;;5.70;;
34805;SDS011;65084;42.196;25.326;2023-10-08T02:12:01;7.65;;;5.13;;
34805;SDS011;65084;42.196;25.326;2023-10-08T02:14:29;23.45;;;5.70;;
34805;SDS011;65084;42.196;25.326;2023-10-08T02:16:57;9.25;;;5.38;;
34805;SDS011;65084;42.196;25.326;2023-10-08T02:19:26;6.93;;;5.10;;
34805;SDS011;65084;42.196;25.326;2023-10-08T02:21:54;8.65;;;5.53;;
34805;SDS011;65084;42.196;25.326;2023-10-08T02:24:21;6.72;;;4.88;;
34805;SDS011;65084;42.196;25.326;2023-10-08T02:26:50;8.68;;;5.10;;
34805;SDS011;65084;42.196;25.326;2023-10-08T02:29:19;17.58;;;5.43;;
34805;SDS011;65084;42.196;25.326;2023-10-08T02:31:47;7.45;;;4.88;;
34805;SDS011;65084;42.196;25.326;2023-10-08T02:34:14;7.03;;;5.55;;
34805;SDS011;65084;42.196;25.326;2023-10-08T02:36:41;9.10;;;5.00;;
34805;SDS011;65084;42.196;25.326;2023-10-08T02:39:09;6.90;;;4.32;;
34805;SDS011;65084;42.196;25.326;2023-10-08T02:41:46;7.90;;;5.28;;
34805;SDS011;65084;42.196;25.326;2023-10-08T02:44:14;6.60;;;4.60;;
34805;SDS011;65084;42.196;25.326;2023-10-08T02:46:44;9.10;;;5.07;;
34805;SDS011;65084;42.196;25.326;2023-10-08T02:49:12;5.82;;;4.65;;
34805;SDS011;65084;42.196;25.326;2023-10-08T02:51:44;7.38;;;5.20;;
34805;SDS011;65084;42.196;25.326;2023-10-08T02:54:12;8.90;;;5.03;;
34805;SDS011;65084;42.196;25.326;2023-10-08T02:56:43;12.30;;;5.10;;
34805;SDS011;65084;42.196;25.326;2023-10-08T02:59:11;6.07;;;4.72;;
34805;SDS011;65084;42.196;25.326;2023-10-08T03:01:40;8.82;;;5.40;;
34805;SDS011;65084;42.196;25.326;2023-10-08T03:04:09;7.13;;;4.68;;
34805;SDS011;65084;42.196;25.326;2023-10-08T03:06:43;7.50;;;4.93;;
34805;SDS011;65084;42.196;25.326;2023-10-08T03:09:14;11.10;;;4.80;;
34805;SDS011;65084;42.196;25.326;2023-10-08T03:11:46;5.95;;;4.70;;
34805;SDS011;65084;42.196;25.326;2023-10-08T03:14:14;8.25;;;5.05;;
34805;SDS011;65084;42.196;25.326;2023-10-08T03:16:47;8.70;;;4.93;;
34805;SDS011;65084;42.196;25.326;2023-10-08T03:19:16;12.45;;;5.38;;
34805;SDS011;65084;42.196;25.326;2023-10-08T03:21:45;6.15;;;4.45;;
34805;SDS011;65084;42.196;25.326;2023-10-08T03:24:16;9.95;;;3.88;;
34805;SDS011;65084;42.196;25.326;2023-10-08T03:27:02;8.35;;;4.40;;
34805;SDS011;65084;42.196;25.326;2023-10-08T03:29:33;6.63;;;4.53;;
34805;SDS011;65084;42.196;25.326;2023-10-08T03:32:06;9.80;;;4.38;;
34805;SDS011;65084;42.196;25.326;2023-10-08T03:34:39;6.20;;;4.85;;
34805;SDS011;65084;42.196;25.326;2023-10-08T03:37:08;11.40;;;4.18;;
34805;SDS011;65084;42.196;25.326;2023-10-08T03:39:44;7.90;;;4.43;;
34805;SDS011;65084;42.196;25.326;2023-10-08T03:42:25;12.05;;;4.75;;
34805;SDS011;65084;42.196;25.326;2023-10-08T03:44:59;7.43;;;4.32;;
34805;SDS011;65084;42.196;25.326;2023-10-08T03:47:35;10.95;;;5.78;;
34805;SDS011;65084;42.196;25.326;2023-10-08T03:50:05;11.63;;;4.65;;
34805;SDS011;65084;42.196;25.326;2023-10-08T03:52:34;26.40;;;4.63;;
34805;SDS011;65084;42.196;25.326;2023-10-08T03:55:03;5.95;;;4.20;;
34805;SDS011;65084;42.196;25.326;2023-10-08T03:57:45;10.52;;;4.40;;
34805;SDS011;65084;42.196;25.326;2023-10-08T04:00:22;9.45;;;4.15;;
34805;SDS011;65084;42.196;25.326;2023-10-08T04:02:56;8.07;;;4.32;;
34805;SDS011;65084;42.196;25.326;2023-10-08T04:05:34;10.07;;;4.57;;
34805;SDS011;65084;42.196;25.326;2023-10-08T04:08:15;6.38;;;3.80;;
34805;SDS011;65084;42.196;25.326;2023-10-08T04:10:50;8.77;;;4.03;;
34805;SDS011;65084;42.196;25.326;2023-10-08T04:13:47;8.23;;;4.20;;
34805;SDS011;65084;42.196;25.326;2023-10-08T04:16:17;5.28;;;4.05;;
34805;SDS011;65084;42.196;25.326;2023-10-08T04:18:45;10.32;;;4.88;;
34805;SDS011;65084;42.196;25.326;2023-10-08T04:21:18;15.20;;;5.43;;
34805;SDS011;65084;42.196;25.326;2023-10-08T04:23:46;10.90;;;5.45;;
34805;SDS011;65084;42.196;25.326;2023-10-08T04:26:18;6.93;;;4.53;;
34805;SDS011;65084;42.196;25.326;2023-10-08T04:28:49;11.63;;;5.60;;
34805;SDS011;65084;42.196;25.326;2023-10-08T04:31:20;11.57;;;5.50;;
34805;SDS011;65084;42.196;25.326;2023-10-08T04:33:50;9.35;;;5.72;;
34805;SDS011;65084;42.196;25.326;2023-10-08T04:36:19;10.43;;;5.60;;
34805;SDS011;65084;42.196;25.326;2023-10-08T04:38:47;9.48;;;5.25;;
34805;SDS011;65084;42.196;25.326;2023-10-08T04:41:15;11.88;;;5.25;;
34805;SDS011;65084;42.196;25.326;2023-10-08T04:43:44;18.23;;;5.47;;
34805;SDS011;65084;42.196;25.326;2023-10-08T04:46:14;12.68;;;4.85;;
34805;SDS011;65084;42.196;25.326;2023-10-08T04:48:59;7.93;;;4.82;;
34805;SDS011;65084;42.196;25.326;2023-10-08T04:51:32;6.43;;;4.45;;
34805;SDS011;65084;42.196;25.326;2023-10-08T04:54:08;7.65;;;4.65;;
34805;SDS011;65084;42.196;25.326;2023-10-08T04:56:41;4.75;;;4.22;;
34805;SDS011;65084;42.196;25.326;2023-10-08T04:59:08;6.45;;;4.45;;
34805;SDS011;65084;42.196;25.326;2023-10-08T05:01:37;7.07;;;5.15;;
34805;SDS011;65084;42.196;25.326;2023-10-08T05:04:12;9.30;;;4.30;;
34805;SDS011;65084;42.196;25.326;2023-10-08T05:06:59;5.80;;;3.90;;
34805;SDS011;65084;42.196;25.326;2023-10-08T05:10:05;6.40;;;4.35;;
34805;SDS011;65084;42.196;25.326;2023-10-08T05:12:57;8.65;;;4.22;;
34805;SDS011;65084;42.196;25.326;2023-10-08T05:15:40;13.23;;;4.38;;
34805;SDS011;65084;42.196;25.326;2023-10-08T05:18:15;7.40;;;4.65;;
34805;SDS011;65084;42.196;25.326;2023-10-08T05:20:49;11.40;;;4.43;;
34805;SDS011;65084;42.196;25.326;2023-10-08T05:23:25;9.80;;;4.15;;
34805;SDS011;65084;42.196;25.326;2023-10-08T05:26:18;10.18;;;4.32;;
34805;SDS011;65084;42.196;25.326;2023-10-08T05:28:56;8.00;;;4.38;;
34805;SDS011;65084;42.196;25.326;2023-10-08T05:31:48;12.38;;;4.63;;
34805;SDS011;65084;42.196;25.326;2023-10-08T05:34:24;15.93;;;4.80;;
34805;SDS011;65084;42.196;25.326;2023-10-08T05:37:07;11.05;;;4.85;;
34805;SDS011;65084;42.196;25.326;2023-10-08T05:39:58;9.75;;;5.05;;
34805;SDS011;65084;42.196;25.326;2023-10-08T05:42:37;6.18;;;4.38;;
34805;SDS011;65084;42.196;25.326;2023-10-08T05:45:12;11.10;;;5.28;;
34805;SDS011;65084;42.196;25.326;2023-10-08T05:47:55;11.38;;;4.88;;
34805;SDS011;65084;42.196;25.326;2023-10-08T05:50:40;10.60;;;5.22;;
34805;SDS011;65084;42.196;25.326;2023-10-08T05:53:20;10.57;;;5.70;;
34805;SDS011;65084;42.196;25.326;2023-10-08T05:56:09;11.98;;;5.57;;
34805;SDS011;65084;42.196;25.326;2023-10-08T05:58:53;17.75;;;5.85;;
34805;SDS011;65084;42.196;25.326;2023-10-08T06:01:39;9.80;;;5.60;;
34805;SDS011;65084;42.196;25.326;2023-10-08T06:04:07;12.18;;;6.45;;
34805;SDS011;65084;42.196;25.326;2023-10-08T06:06:57;17.02;;;6.55;;
34805;SDS011;65084;42.196;25.326;2023-10-08T06:09:37;16.27;;;6.35;;
34805;SDS011;65084;42.196;25.326;2023-10-08T06:12:06;14.68;;;6.72;;
34805;SDS011;65084;42.196;25.326;2023-10-08T06:14:44;13.52;;;6.28;;
34805;SDS011;65084;42.196;25.326;2023-10-08T06:17:29;19.85;;;6.40;;
34805;SDS011;65084;42.196;25.326;2023-10-08T06:20:29;19.70;;;6.45;;
34805;SDS011;65084;42.196;25.326;2023-10-08T06:22:58;11.68;;;5.82;;
34805;SDS011;65084;42.196;25.326;2023-10-08T06:25:32;12.52;;;6.10;;
34805;SDS011;65084;42.196;25.326;2023-10-08T06:28:11;10.77;;;5.53;;
34805;SDS011;65084;42.196;25.326;2023-10-08T06:30:40;8.75;;;5.80;;
34805;SDS011;65084;42.196;25.326;2023-10-08T06:33:07;14.32;;;5.95;;
34805;SDS011;65084;42.196;25.326;2023-10-08T06:35:34;9.80;;;5.75;;
34805;SDS011;65084;42.196;25.326;2023-10-08T06:38:02;12.70;;;7.05;;
34805;SDS011;65084;42.196;25.326;2023-10-08T06:40:34;13.65;;;6.07;;
34805;SDS011;65084;42.196;25.326;2023-10-08T06:43:07;17.05;;;5.70;;
34805;SDS011;65084;42.196;25.326;2023-10-08T06:45:41;12.15;;;5.63;;
34805;SDS011;65084;42.196;25.326;2023-10-08T06:48:09;7.93;;;5.43;;
34805;SDS011;65084;42.196;25.326;2023-10-08T06:50:43;11.40;;;5.00;;
34805;SDS011;65084;42.196;25.326;2023-10-08T06:53:10;11.55;;;5.90;;
34805;SDS011;65084;42.196;25.326;2023-10-08T06:55:39;14.70;;;5.68;;
34805;SDS011;65084;42.196;25.326;2023-10-08T06:58:07;17.17;;;6.45;;
34805;SDS011;65084;42.196;25.326;2023-10-08T07:00:35;11.30;;;5.63;;
34805;SDS011;65084;42.196;25.326;2023-10-08T07:03:13;12.15;;;5.30;;
34805;SDS011;65084;42.196;25.326;2023-10-08T07:05:42;11.02;;;5.80;;
34805;SDS011;65084;42.196;25.326;2023-10-08T07:08:19;11.70;;;5.15;;
34805;SDS011;65084;42.196;25.326;2023-10-08T07:10:48;7.88;;;4.97;;
34805;SDS011;65084;42.196;25.326;2023-10-08T07:13:15;11.05;;;5.72;;
34805;SDS011;65084;42.196;25.326;2023-10-08T07:15:44;9.15;;;5.45;;
34805;SDS011;65084;42.196;25.326;2023-10-08T07:18:14;13.52;;;5.43;;
34805;SDS011;65084;42.196;25.326;2023-10-08T07:20:49;14.45;;;5.82;;
34805;SDS011;65084;42.196;25.326;2023-10-08T07:23:19;13.90;;;5.82;;
34805;SDS011;65084;42.196;25.326;2023-10-08T07:25:53;15.05;;;6.30;;
34805;SDS011;65084;42.196;25.326;2023-10-08T07:28:23;16.00;;;5.85;;
34805;SDS011;65084;42.196;25.326;2023-10-08T07:30:52;12.50;;;6.45;;
34805;SDS011;65084;42.196;25.326;2023-10-08T07:33:21;8.18;;;5.60;;
34805;SDS011;65084;42.196;25.326;2023-10-08T07:35:50;10.48;;;5.53;;
34805;SDS011;65084;42.196;25.326;2023-10-08T07:38:22;11.40;;;6.07;;
34805;SDS011;65084;42.196;25.326;2023-10-08T07:40:52;25.33;;;5.53;;
34805;SDS011;65084;42.196;25.326;2023-10-08T07:43:20;10.63;;;5.43;;
34805;SDS011;65084;42.196;25.326;2023-10-08T07:45:47;16.75;;;5.40;;
34805;SDS011;65084;42.196;25.326;2023-10-08T07:48:15;11.40;;;6.00;;
34805;SDS011;65084;42.196;25.326;2023-10-08T07:50:44;13.07;;;5.55;;
34805;SDS011;65084;42.196;25.326;2023-10-08T07:53:12;18.05;;;5.97;;
34805;SDS011;65084;42.196;25.326;2023-10-08T07:55:46;49.60;;;37.13;;
34805;SDS011;65084;42.196;25.326;2023-10-08T07:58:14;59.92;;;32.85;;
34805;SDS011;65084;42.196;25.326;2023-10-08T08:00:42;98.50;;;49.08;;
34805;SDS011;65084;42.196;25.326;2023-10-08T08:03:17;46.50;;;21.08;;
34805;SDS011;65084;42.196;25.326;2023-10-08T08:05:46;61.13;;;30.73;;
34805;SDS011;65084;42.196;25.326;2023-10-08T08:08:17;157.85;;;97.53;;
34805;SDS011;65084;42.196;25.326;2023-10-08T08:10:46;168.23;;;103.03;;
34805;SDS011;65084;42.196;25.326;2023-10-08T08:13:14;69.68;;;39.85;;
34805;SDS011;65084;42.196;25.326;2023-10-08T08:15:45;127.10;;;79.20;;
34805;SDS011;65084;42.196;25.326;2023-10-08T08:18:16;809.92;;;538.60;;
34805;SDS011;65084;42.196;25.326;2023-10-08T08:20:49;698.30;;;399.98;;
34805;SDS011;65084;42.196;25.326;2023-10-08T08:23:16;525.58;;;319.05;;
34805;SDS011;65084;42.196;25.326;2023-10-08T08:25:45;96.78;;;52.53;;
34805;SDS011;65084;42.196;25.326;2023-10-08T08:28:30;61.63;;;32.00;;
34805;SDS011;65084;42.196;25.326;2023-10-08T08:31:01;89.75;;;54.55;;
34805;SDS011;65084;42.196;25.326;2023-10-08T08:33:29;38.10;;;20.13;;
34805;SDS011;65084;42.196;25.326;2023-10-08T08:36:18;44.70;;;24.63;;
34805;SDS011;65084;42.196;25.326;2023-10-08T08:38:46;46.63;;;14.70;;
34805;SDS011;65084;42.196;25.326;2023-10-08T08:41:13;14.50;;;6.55;;
34805;SDS011;65084;42.196;25.326;2023-10-08T08:43:43;21.00;;;6.85;;
34805;SDS011;65084;42.196;25.326;2023-10-08T08:46:11;28.40;;;14.38;;
34805;SDS011;65084;42.196;25.326;2023-10-08T08:48:39;38.25;;;24.48;;
34805;SDS011;65084;42.196;25.326;2023-10-08T08:51:07;28.10;;;16.33;;
34805;SDS011;65084;42.196;25.326;2023-10-08T08:53:37;38.63;;;19.95;;
34805;SDS011;65084;42.196;25.326;2023-10-08T08:56:05;45.90;;;17.90;;
34805;SDS011;65084;42.196;25.326;2023-10-08T08:58:34;23.15;;;6.53;;
34805;SDS011;65084;42.196;25.326;2023-10-08T09:01:02;9.93;;;5.78;;
34805;SDS011;65084;42.196;25.326;2023-10-08T09:03:30;9.88;;;5.22;;
34805;SDS011;65084;42.196;25.326;2023-10-08T09:05:57;22.10;;;6.72;;
34805;SDS011;65084;42.196;25.326;2023-10-08T09:08:27;18.90;;;4.72;;
34805;SDS011;65084;42.196;25.326;2023-10-08T09:10:58;19.05;;;4.35;;
34805;SDS011;65084;42.196;25.326;2023-10-08T09:13:29;20.08;;;5.05;;
34805;SDS011;65084;42.196;25.326;2023-10-08T09:15:56;17.02;;;4.47;;
34805;SDS011;65084;42.196;25.326;2023-10-08T09:18:24;12.02;;;5.00;;
34805;SDS011;65084;42.196;25.326;2023-10-08T09:20:53;17.50;;;5.85;;
34805;SDS011;65084;42.196;25.326;2023-10-08T09:23:20;17.00;;;5.43;;
34805;SDS011;65084;42.196;25.326;2023-10-08T09:25:48;8.90;;;4.75;;
34805;SDS011;65084;42.196;25.326;2023-10-08T09:28:18;15.65;;;5.00;;
34805;SDS011;65084;42.196;25.326;2023-10-08T09:30:46;20.42;;;4.63;;
34805;SDS011;65084;42.196;25.326;2023-10-08T09:33:14;9.77;;;4.32;;
34805;SDS011;65084;42.196;25.326;2023-10-08T09:35:42;12.82;;;4.35;;
34805;SDS011;65084;42.196;25.326;2023-10-08T09:38:10;10.77;;;4.22;;
34805;SDS011;65084;42.196;25.326;2023-10-08T09:40:38;16.27;;;4.78;;
34805;SDS011;65084;42.196;25.326;2023-10-08T09:43:06;11.13;;;4.03;;
34805;SDS011;65084;42.196;25.326;2023-10-08T09:45:35;10.70;;;4.43;;
34805;SDS011;65084;42.196;25.326;2023-10-08T09:48:03;14.65;;;4.13;;
34805;SDS011;65084;42.196;25.326;2023-10-08T09:50:36;18.00;;;4.07;;
34805;SDS011;65084;42.196;25.326;2023-10-08T09:53:06;11.45;;;4.07;;
34805;SDS011;65084;42.196;25.326;2023-10-08T09:55:40;15.70;;;3.97;;
34805;SDS011;65084;42.196;25.326;2023-10-08T09:58:10;8.65;;;4.68;;
34805;SDS011;65084;42.196;25.326;2023-10-08T10:00:40;8.77;;;4.05;;
34805;SDS011;65084;42.196;25.326;2023-10-08T10:03:10;4.85;;;4.30;;
34805;SDS011;65084;42.196;25.326;2023-10-08T10:05:38;7.88;;;3.95;;
34805;SDS011;65084;42.196;25.326;2023-10-08T10:08:05;7.65;;;4.18;;
34805;SDS011;65084;42.196;25.326;2023-10-08T10:10:35;10.43;;;4.10;;
34805;SDS011;65084;42.196;25.326;2023-10-08T10:13:03;17.20;;;4.20;;
34805;SDS011;65084;42.196;25.326;2023-10-08T10:15:33;9.82;;;4.03;;
34805;SDS011;65084;42.196;25.326;2023-10-08T10:18:09;8.63;;;3.72;;
34805;SDS011;65084;42.196;25.326;2023-10-08T10:20:39;9.63;;;3.67;;
34805;SDS011;65084;42.196;25.326;2023-10-08T10:25:50;19.13;;;5.07;;
34805;SDS011;65084;42.196;25.326;2023-10-08T10:28:22;9.88;;;3.75;;
34805;SDS011;65084;42.196;25.326;2023-10-08T10:30:50;10.35;;;4.00;;
34805;SDS011;65084;42.196;25.326;2023-10-08T10:33:19;8.63;;;3.80;;
34805;SDS011;65084;42.196;25.326;2023-10-08T10:35:53;10.07;;;3.65;;
34805;SDS011;65084;42.196;25.326;2023-10-08T10:38:20;12.63;;;4.75;;
34805;SDS011;65084;42.196;25.326;2023-10-08T10:40:51;10.18;;;3.88;;
34805;SDS011;65084;42.196;25.326;2023-10-08T10:43:23;8.77;;;3.90;;
34805;SDS011;65084;42.196;25.326;2023-10-08T10:45:58;5.80;;;3.20;;
34805;SDS011;65084;42.196;25.326;2023-10-08T10:48:32;4.93;;;3.40;;
34805;SDS011;65084;42.196;25.326;2023-10-08T10:50:59;10.05;;;3.70;;
34805;SDS011;65084;42.196;25.326;2023-10-08T10:53:42;13.70;;;3.92;;
34805;SDS011;65084;42.196;25.326;2023-10-08T10:56:11;5.15;;;3.60;;
34805;SDS011;65084;42.196;25.326;2023-10-08T10:58:45;8.40;;;3.83;;
34805;SDS011;65084;42.196;25.326;2023-10-08T11:01:12;7.65;;;2.95;;
34805;SDS011;65084;42.196;25.326;2023-10-08T11:03:50;10.68;;;3.50;;
34805;SDS011;65084;42.196;25.326;2023-10-08T11:06:18;7.20;;;3.75;;
34805;SDS011;65084;42.196;25.326;2023-10-08T11:08:48;11.45;;;3.70;;
34805;SDS011;65084;42.196;25.326;2023-10-08T11:11:17;8.60;;;3.50;;
34805;SDS011;65084;42.196;25.326;2023-10-08T11:13:45;8.20;;;3.33;;
34805;SDS011;65084;42.196;25.326;2023-10-08T11:16:22;6.35;;;3.20;;
34805;SDS011;65084;42.196;25.326;2023-10-08T11:18:52;11.32;;;3.97;;
34805;SDS011;65084;42.196;25.326;2023-10-08T11:21:23;6.47;;;3.20;;
34805;SDS011;65084;42.196;25.326;2023-10-08T11:23:51;7.03;;;3.65;;
34805;SDS011;65084;42.196;25.326;2023-10-08T11:26:21;8.75;;;3.47;;
34805;SDS011;65084;42.196;25.326;2023-10-08T11:28:57;8.45;;;4.03;;
34805;SDS011;65084;42.196;25.326;2023-10-08T11:31:26;16.33;;;3.60;;
34805;SDS011;65084;42.196;25.326;2023-10-08T11:33:59;10.40;;;3.92;;
34805;SDS011;65084;42.196;25.326;2023-10-08T11:36:28;10.65;;;4.20;;
34805;SDS011;65084;42.196;25.326;2023-10-08T11:39:11;7.82;;;3.30;;
34805;SDS011;65084;42.196;25.326;2023-10-08T11:41:54;20.52;;;3.67;;
34805;SDS011;65084;42.196;25.326;2023-10-08T11:44:21;6.75;;;4.07;;
34805;SDS011;65084;42.196;25.326;2023-10-08T11:46:55;7.50;;;3.72;;
34805;SDS011;65084;42.196;25.326;2023-10-08T11:49:31;7.00;;;3.92;;
34805;SDS011;65084;42.196;25.326;2023-10-08T11:52:01;4.82;;;3.08;;
34805;SDS011;65084;42.196;25.326;2023-10-08T11:54:29;16.42;;;3.45;;
34805;SDS011;65084;42.196;25.326;2023-10-08T11:56:58;11.30;;;3.63;;
34805;SDS011;65084;42.196;25.326;2023-10-08T11:59:27;9.98;;;3.47;;
34805;SDS011;65084;42.196;25.326;2023-10-08T12:01:54;13.23;;;3.00;;
34805;SDS011;65084;42.196;25.326;2023-10-08T12:04:22;8.75;;;3.63;;
34805;SDS011;65084;42.196;25.326;2023-10-08T12:06:50;8.80;;;3.42;;
34805;SDS011;65084;42.196;25.326;2023-10-08T12:09:18;12.68;;;3.38;;
34805;SDS011;65084;42.196;25.326;2023-10-08T12:11:47;14.73;;;3.50;;
34805;SDS011;65084;42.196;25.326;2023-10-08T12:14:14;9.23;;;3.85;;
34805;SDS011;65084;42.196;25.326;2023-10-08T12:16:41;13.45;;;3.40;;
34805;SDS011;65084;42.196;25.326;2023-10-08T12:19:10;9.65;;;3.60;;
34805;SDS011;65084;42.196;25.326;2023-10-08T12:21:42;6.35;;;3.28;;
34805;SDS011;65084;42.196;25.326;2023-10-08T12:24:12;6.07;;;3.75;;
34805;SDS011;65084;42.196;25.326;2023-10-08T12:26:40;10.23;;;3.72;;
34805;SDS011;65084;42.196;25.326;2023-10-08T12:29:10;9.07;;;3.70;;
34805;SDS011;65084;42.196;25.326;2023-10-08T12:31:39;11.38;;;3.85;;
34805;SDS011;65084;42.196;25.326;2023-10-08T12:34:06;10.63;;;3.60;;
34805;SDS011;65084;42.196;25.326;2023-10-08T12:36:36;8.90;;;3.65;;
34805;SDS011;65084;42.196;25.326;2023-10-08T12:39:04;25.75;;;4.03;;
34805;SDS011;65084;42.196;25.326;2023-10-08T12:44:10;8.02;;;3.38;;
34805;SDS011;65084;42.196;25.326;2023-10-08T12:46:37;16.98;;;4.05;;
34805;SDS011;65084;42.196;25.326;2023-10-08T12:49:06;15.00;;;4.18;;
34805;SDS011;65084;42.196;25.326;2023-10-08T12:51:33;14.63;;;3.92;;
34805;SDS011;65084;42.196;25.326;2023-10-08T12:54:06;9.07;;;3.75;;
34805;SDS011;65084;42.196;25.326;2023-10-08T12:56:36;11.07;;;4.47;;
34805;SDS011;65084;42.196;25.326;2023-10-08T12:59:11;8.95;;;3.83;;
34805;SDS011;65084;42.196;25.326;2023-10-08T13:01:45;10.35;;;4.05;;
34805;SDS011;65084;42.196;25.326;2023-10-08T13:04:16;14.82;;;4.13;;
34805;SDS011;65084;42.196;25.326;2023-10-08T13:06:51;21.00;;;4.00;;
34805;SDS011;65084;42.196;25.326;2023-10-08T13:09:22;11.25;;;4.60;;
34805;SDS011;65084;42.196;25.326;2023-10-08T13:11:49;10.15;;;4.00;;
34805;SDS011;65084;42.196;25.326;2023-10-08T13:14:18;15.05;;;5.20;;
34805;SDS011;65084;42.196;25.326;2023-10-08T13:16:47;7.10;;;3.67;;
34805;SDS011;65084;42.196;25.326;2023-10-08T13:19:18;9.70;;;3.72;;
34805;SDS011;65084;42.196;25.326;2023-10-08T13:21:48;14.82;;;3.35;;
34805;SDS011;65084;42.196;25.326;2023-10-08T13:24:17;10.63;;;3.30;;
34805;SDS011;65084;42.196;25.326;2023-10-08T13:26:44;9.10;;;3.30;;
34805;SDS011;65084;42.196;25.326;2023-10-08T13:29:13;14.15;;;2.78;;
34805;SDS011;65084;42.196;25.326;2023-10-08T13:31:44;7.00;;;3.10;;
34805;SDS011;65084;42.196;25.326;2023-10-08T13:34:12;10.70;;;3.80;;
34805;SDS011;65084;42.196;25.326;2023-10-08T13:36:41;11.82;;;3.20;;
34805;SDS011;65084;42.196;25.326;2023-10-08T13:39:12;14.98;;;4.35;;
34805;SDS011;65084;42.196;25.326;2023-10-08T13:41:43;15.55;;;2.92;;
34805;SDS011;65084;42.196;25.326;2023-10-08T13:44:13;12.73;;;2.88;;
34805;SDS011;65084;42.196;25.326;2023-10-08T13:46:40;10.55;;;3.42;;
34805;SDS011;65084;42.196;25.326;2023-10-08T13:49:15;17.10;;;2.90;;
34805;SDS011;65084;42.196;25.326;2023-10-08T13:51:43;18.23;;;4.70;;
34805;SDS011;65084;42.196;25.326;2023-10-08T13:54:11;12.48;;;3.90;;
34805;SDS011;65084;42.196;25.326;2023-10-08T13:56:39;7.57;;;3.17;;
34805;SDS011;65084;42.196;25.326;2023-10-08T13:59:13;19.30;;;2.92;;
34805;SDS011;65084;42.196;25.326;2023-10-08T14:01:41;10.57;;;2.60;;
34805;SDS011;65084;42.196;25.326;2023-10-08T14:07:16;7.22;;;2.90;;
34805;SDS011;65084;42.196;25.326;2023-10-08T14:09:43;12.32;;;6.15;;
34805;SDS011;65084;42.196;25.326;2023-10-08T14:12:11;13.02;;;3.03;;
34805;SDS011;65084;42.196;25.326;2023-10-08T14:14:39;12.77;;;3.47;;
34805;SDS011;65084;42.196;25.326;2023-10-08T14:17:09;6.45;;;3.17;;
34805;SDS011;65084;42.196;25.326;2023-10-08T14:19:40;12.00;;;2.90;;
34805;SDS011;65084;42.196;25.326;2023-10-08T14:22:11;10.43;;;3.35;;
34805;SDS011;65084;42.196;25.326;2023-10-08T14:24:41;14.10;;;3.30;;
34805;SDS011;65084;42.196;25.326;2023-10-08T14:27:10;17.25;;;4.35;;
34805;SDS011;65084;42.196;25.326;2023-10-08T14:29:40;5.00;;;2.53;;
34805;SDS011;65084;42.196;25.326;2023-10-08T14:32:09;12.65;;;3.90;;
34805;SDS011;65084;42.196;25.326;2023-10-08T14:34:37;8.70;;;3.58;;
34805;SDS011;65084;42.196;25.326;2023-10-08T14:37:22;12.80;;;2.63;;
34805;SDS011;65084;42.196;25.326;2023-10-08T14:40:08;18.50;;;5.32;;
34805;SDS011;65084;42.196;25.326;2023-10-08T14:42:55;11.77;;;2.70;;
34805;SDS011;65084;42.196;25.326;2023-10-08T14:45:24;13.55;;;4.20;;
34805;SDS011;65084;42.196;25.326;2023-10-08T14:47:52;13.77;;;3.67;;
34805;SDS011;65084;42.196;25.326;2023-10-08T14:50:20;8.55;;;3.28;;
34805;SDS011;65084;42.196;25.326;2023-10-08T14:52:48;11.52;;;4.20;;
34805;SDS011;65084;42.196;25.326;2023-10-08T14:55:17;16.08;;;3.45;;
34805;SDS011;65084;42.196;25.326;2023-10-08T14:57:46;16.27;;;4.00;;
34805;SDS011;65084;42.196;25.326;2023-10-08T15:00:16;23.75;;;3.38;;